createdAt,value
2022-11-18T00:00:29.377Z,0.00
2022-11-18T00:01:30.367Z,0.00
2022-11-18T00:02:30.341Z,0.00
2022-11-18T00:03:30.236Z,0.00
2022-11-18T00:04:30.119Z,0.00
2022-11-18T00:06:39.286Z,0.00
2022-11-18T00:07:40.270Z,0.00
2022-11-18T00:08:40.180Z,0.00
2022-11-18T00:09:40.102Z,0.00
2022-11-18T00:10:40.021Z,0.00
2022-11-18T00:11:39.980Z,0.00
2022-11-18T00:12:39.918Z,0.00
2022-11-18T00:13:39.847Z,0.00
2022-11-18T00:14:39.787Z,0.00
2022-11-18T00:15:39.707Z,0.00
2022-11-18T00:16:39.676Z,0.00
2022-11-18T00:17:39.617Z,0.00
2022-11-18T00:18:39.529Z,0.00
2022-11-18T00:19:39.487Z,0.00
2022-11-18T00:20:39.393Z,0.00
2022-11-18T00:21:39.379Z,0.00
2022-11-18T00:22:39.289Z,0.00
2022-11-18T00:25:57.630Z,0.00
2022-11-18T00:26:58.536Z,0.00
2022-11-18T00:27:58.521Z,0.00
2022-11-18T00:28:58.388Z,0.00
2022-11-18T00:29:58.370Z,0.00
2022-11-18T00:30:58.337Z,0.00
2022-11-18T00:31:58.229Z,0.00
2022-11-18T00:32:58.203Z,0.00
2022-11-18T00:33:58.134Z,0.00
2022-11-18T00:34:58.090Z,0.00
2022-11-18T00:35:57.940Z,0.00
2022-11-18T00:36:57.972Z,0.00
2022-11-18T00:37:57.858Z,0.00
2022-11-18T00:38:57.831Z,0.00
2022-11-18T00:39:57.719Z,0.00
2022-11-18T00:40:57.676Z,0.00
2022-11-18T00:41:57.600Z,0.00
2022-11-18T00:42:57.557Z,0.00
2022-11-18T00:43:57.458Z,0.00
2022-11-18T00:44:57.390Z,0.00
2022-11-18T00:45:57.471Z,0.00
2022-11-18T00:46:57.295Z,0.00
2022-11-18T00:47:57.173Z,0.00
2022-11-18T00:48:58.060Z,0.00
2022-11-18T00:49:57.083Z,0.00
2022-11-18T00:50:57.005Z,0.00
2022-11-18T00:51:56.919Z,0.00
2022-11-18T00:52:56.841Z,1.00
2022-11-18T00:53:56.854Z,0.00
2022-11-18T00:54:56.806Z,0.00
2022-11-18T00:55:56.733Z,0.00
2022-11-18T00:56:56.645Z,0.00
2022-11-18T00:57:56.553Z,0.00
2022-11-18T00:58:56.515Z,0.00
2022-11-18T00:59:56.462Z,0.00
2022-11-18T01:00:56.461Z,0.00
2022-11-18T01:01:56.304Z,0.00
2022-11-18T01:02:56.265Z,0.00
2022-11-18T01:03:56.174Z,0.00
2022-11-18T01:04:56.144Z,0.00
2022-11-18T01:05:56.073Z,0.00
2022-11-18T01:06:56.061Z,0.00
2022-11-18T01:07:55.892Z,0.00
2022-11-18T01:08:55.928Z,0.00
2022-11-18T01:09:55.824Z,0.00
2022-11-18T01:10:55.745Z,0.00
2022-11-18T01:11:55.627Z,1.00
2022-11-18T01:12:55.565Z,1.00
2022-11-18T01:13:55.478Z,1.00
2022-11-18T01:14:55.531Z,0.00
2022-11-18T01:15:55.443Z,0.00
2022-11-18T01:16:55.372Z,0.00
2022-11-18T01:17:55.311Z,0.00
2022-11-18T01:19:16.568Z,0.00
2022-11-18T01:19:55.192Z,0.00
2022-11-18T01:20:55.062Z,0.00
2022-11-18T01:21:55.051Z,0.00
2022-11-18T01:22:55.013Z,0.00
2022-11-18T01:23:54.950Z,0.00
2022-11-18T01:24:54.879Z,0.00
2022-11-18T01:25:54.791Z,0.00
2022-11-18T01:26:54.709Z,0.00
2022-11-18T01:27:54.672Z,0.00
2022-11-18T01:28:54.572Z,0.00
2022-11-18T01:29:54.541Z,0.00
2022-11-18T01:30:54.443Z,0.00
2022-11-18T01:32:23.984Z,0.00
2022-11-18T01:32:54.363Z,0.00
2022-11-18T01:33:54.307Z,0.00
2022-11-18T01:34:54.193Z,0.00
2022-11-18T01:35:54.136Z,0.00
2022-11-18T01:36:54.250Z,0.00
2022-11-18T01:37:54.041Z,0.00
2022-11-18T01:38:53.973Z,0.00
2022-11-18T01:39:53.871Z,0.00
2022-11-18T01:40:53.837Z,0.00
2022-11-18T01:41:53.805Z,0.00
2022-11-18T01:42:53.740Z,0.00
2022-11-18T01:43:53.643Z,0.00
2022-11-18T01:44:53.557Z,0.00
2022-11-18T01:45:53.534Z,0.00
2022-11-18T01:46:53.435Z,0.00
2022-11-18T01:47:53.425Z,0.00
2022-11-18T01:48:53.311Z,0.00
2022-11-18T01:49:53.228Z,0.00
2022-11-18T01:50:53.189Z,0.00
2022-11-18T01:51:53.135Z,0.00
2022-11-18T01:52:53.036Z,0.00
2022-11-18T01:53:52.996Z,0.00
2022-11-18T01:54:52.929Z,0.00
2022-11-18T01:55:52.846Z,0.00
2022-11-18T01:56:52.784Z,0.00
2022-11-18T01:57:52.728Z,0.00
2022-11-18T01:58:52.677Z,0.00
2022-11-18T01:59:52.603Z,0.00
2022-11-18T02:00:52.678Z,0.00
2022-11-18T02:01:58.250Z,0.00
2022-11-18T02:02:52.367Z,1.00
2022-11-18T02:03:52.278Z,1.00
2022-11-18T02:04:52.244Z,2.00
2022-11-18T02:05:52.195Z,1.00
2022-11-18T02:06:52.195Z,0.00
2022-11-18T02:07:52.077Z,0.00
2022-11-18T02:08:52.044Z,0.00
2022-11-18T02:09:51.949Z,0.00
2022-11-18T02:10:51.901Z,0.00
2022-11-18T02:11:51.916Z,0.00
2022-11-18T02:13:21.650Z,0.00
2022-11-18T02:13:51.672Z,1.00
2022-11-18T02:14:51.633Z,0.00
2022-11-18T02:15:51.581Z,0.00
2022-11-18T02:16:51.504Z,0.00
2022-11-18T02:17:51.472Z,0.00
2022-11-18T02:18:51.363Z,0.00
2022-11-18T02:19:51.303Z,1.00
2022-11-18T02:20:51.250Z,1.00
2022-11-18T02:21:51.180Z,2.00
2022-11-18T02:22:51.069Z,2.00
2022-11-18T02:23:51.031Z,1.00
2022-11-18T02:24:51.030Z,0.00
2022-11-18T02:25:50.980Z,0.00
2022-11-18T02:26:50.889Z,1.00
2022-11-18T02:27:50.771Z,1.00
2022-11-18T02:28:50.699Z,1.00
2022-11-18T02:29:50.680Z,2.00
2022-11-18T02:31:13.970Z,2.00
2022-11-18T02:31:50.548Z,2.00
2022-11-18T02:32:50.446Z,1.00
2022-11-18T02:33:50.429Z,2.00
2022-11-18T02:34:50.278Z,2.00
2022-11-18T02:35:50.248Z,2.00
2022-11-18T02:36:50.199Z,2.00
2022-11-18T02:37:50.129Z,2.00
2022-11-18T02:38:50.063Z,1.00
2022-11-18T02:39:50.086Z,0.00
2022-11-18T02:40:49.989Z,0.00
2022-11-18T02:41:49.938Z,0.00
2022-11-18T02:42:49.887Z,0.00
2022-11-18T02:43:49.769Z,0.00
2022-11-18T02:44:49.732Z,0.00
2022-11-18T02:45:49.685Z,0.00
2022-11-18T02:46:49.600Z,0.00
2022-11-18T02:47:49.553Z,0.00
2022-11-18T02:51:08.918Z,0.00
2022-11-18T02:52:10.349Z,0.00
2022-11-18T02:53:09.786Z,0.00
2022-11-18T02:54:09.717Z,0.00
2022-11-18T02:55:09.656Z,0.00
2022-11-18T02:56:09.589Z,0.00
2022-11-18T02:57:09.529Z,0.00
2022-11-18T02:58:09.449Z,0.00
2022-11-18T02:59:09.435Z,0.00
2022-11-18T03:00:09.376Z,0.00
2022-11-18T03:01:09.373Z,0.00
2022-11-18T03:02:09.208Z,0.00
2022-11-18T03:03:09.107Z,0.00
2022-11-18T03:04:09.095Z,0.00
2022-11-18T03:05:09.056Z,0.00
2022-11-18T03:06:08.946Z,0.00
2022-11-18T03:07:08.897Z,0.00
2022-11-18T03:08:08.913Z,0.00
2022-11-18T03:09:08.805Z,0.00
2022-11-18T03:10:08.735Z,0.00
2022-11-18T03:11:08.656Z,0.00
2022-11-18T03:12:08.604Z,0.00
2022-11-18T03:13:08.547Z,0.00
2022-11-18T03:14:08.472Z,0.00
2022-11-18T03:15:08.421Z,0.00
2022-11-18T03:16:08.338Z,0.00
2022-11-18T03:17:08.265Z,0.00
2022-11-18T03:18:08.191Z,0.00
2022-11-18T03:19:08.160Z,0.00
2022-11-18T03:20:08.074Z,0.00
2022-11-18T03:21:08.011Z,0.00
2022-11-18T03:22:07.921Z,0.00
2022-11-18T03:23:07.845Z,0.00
2022-11-18T03:24:07.843Z,0.00
2022-11-18T03:25:07.737Z,0.00
2022-11-18T03:26:37.189Z,0.00
2022-11-18T03:27:07.610Z,0.00
2022-11-18T03:28:07.524Z,0.00
2022-11-18T03:29:07.452Z,0.00
2022-11-18T03:30:07.411Z,0.00
2022-11-18T03:31:07.393Z,0.00
2022-11-18T03:32:07.342Z,0.00
2022-11-18T03:33:07.239Z,0.00
2022-11-18T03:34:07.160Z,0.00
2022-11-18T03:35:07.099Z,0.00
2022-11-18T03:36:07.048Z,0.00
2022-11-18T03:37:10.423Z,0.00
2022-11-18T03:38:06.970Z,0.00
2022-11-18T03:39:06.858Z,0.00
2022-11-18T03:40:06.811Z,0.00
2022-11-18T03:41:06.749Z,0.00
2022-11-18T03:42:06.689Z,0.00
2022-11-18T03:43:06.589Z,0.00
2022-11-18T03:44:08.952Z,0.00
2022-11-18T03:45:06.438Z,0.00
2022-11-18T03:46:06.373Z,0.00
2022-11-18T03:47:06.369Z,0.00
2022-11-18T03:48:06.266Z,0.00
2022-11-18T03:49:06.198Z,0.00
2022-11-18T03:50:06.129Z,0.00
2022-11-18T03:51:06.089Z,0.00
2022-11-18T03:52:06.007Z,0.00
2022-11-18T03:53:05.946Z,0.00
2022-11-18T03:54:05.883Z,0.00
2022-11-18T03:55:05.801Z,0.00
2022-11-18T03:56:05.806Z,0.00
2022-11-18T03:57:05.679Z,0.00
2022-11-18T03:58:05.598Z,0.00
2022-11-18T03:59:05.536Z,0.00
2022-11-18T04:00:05.523Z,0.00
2022-11-18T04:01:05.408Z,0.00
2022-11-18T04:02:26.377Z,0.00
2022-11-18T04:03:05.279Z,0.00
2022-11-18T04:04:05.214Z,0.00
2022-11-18T04:05:05.147Z,0.00
2022-11-18T04:06:05.093Z,0.00
2022-11-18T04:07:05.061Z,0.00
2022-11-18T04:08:05.043Z,0.00
2022-11-18T04:09:04.908Z,0.00
2022-11-18T04:10:04.882Z,0.00
2022-11-18T04:11:04.802Z,0.00
2022-11-18T04:12:04.752Z,0.00
2022-11-18T04:13:06.525Z,0.00
2022-11-18T04:14:04.920Z,0.00
2022-11-18T04:15:04.651Z,0.00
2022-11-18T04:16:04.511Z,0.00
2022-11-18T04:17:04.452Z,0.00
2022-11-18T04:18:04.344Z,0.00
2022-11-18T04:19:06.315Z,0.00
2022-11-18T04:20:25.223Z,0.00
2022-11-18T04:21:04.133Z,0.00
2022-11-18T04:22:04.102Z,0.00
2022-11-18T04:23:04.025Z,0.00
2022-11-18T04:24:04.000Z,0.00
2022-11-18T04:25:03.890Z,0.00
2022-11-18T04:26:03.876Z,0.00
2022-11-18T04:27:03.772Z,0.00
2022-11-18T04:28:03.721Z,0.00
2022-11-18T04:29:03.637Z,0.00
2022-11-18T04:30:03.621Z,0.00
2022-11-18T04:31:03.522Z,0.00
2022-11-18T04:32:03.482Z,0.00
2022-11-18T04:33:03.384Z,0.00
2022-11-18T04:34:03.359Z,0.00
2022-11-18T04:35:03.274Z,0.00
2022-11-18T04:36:03.201Z,0.00
2022-11-18T04:37:03.178Z,0.00
2022-11-18T04:38:05.064Z,0.00
2022-11-18T04:39:03.013Z,0.00
2022-11-18T04:40:02.957Z,0.00
2022-11-18T04:41:02.877Z,0.00
2022-11-18T04:42:02.758Z,0.00
2022-11-18T04:43:02.728Z,0.00
2022-11-18T04:44:02.700Z,0.00
2022-11-18T04:45:02.586Z,0.00
2022-11-18T04:46:02.536Z,0.00
2022-11-18T04:47:02.468Z,0.00
2022-11-18T04:48:03.914Z,0.00
2022-11-18T04:49:02.379Z,0.00
2022-11-18T04:50:02.322Z,0.00
2022-11-18T04:51:02.228Z,0.00
2022-11-18T04:52:02.148Z,0.00
2022-11-18T04:53:02.096Z,0.00
2022-11-18T04:54:02.008Z,0.00
2022-11-18T04:55:01.952Z,0.00
2022-11-18T04:56:01.916Z,0.00
2022-11-18T04:57:01.838Z,0.00
2022-11-18T04:58:01.774Z,0.00
2022-11-18T04:59:01.724Z,0.00
2022-11-18T05:00:01.656Z,0.00
2022-11-18T05:01:01.659Z,0.00
2022-11-18T05:02:01.513Z,0.00
2022-11-18T05:03:01.452Z,0.00
2022-11-18T05:04:01.435Z,0.00
2022-11-18T05:05:01.367Z,0.00
2022-11-18T05:06:01.243Z,0.00
2022-11-18T05:07:01.295Z,0.00
2022-11-18T05:08:01.501Z,0.00
2022-11-18T05:09:01.112Z,0.00
2022-11-18T05:10:01.033Z,0.00
2022-11-18T05:11:00.907Z,0.00
2022-11-18T05:12:00.862Z,0.00
2022-11-18T05:13:00.833Z,0.00
2022-11-18T05:14:04.791Z,0.00
2022-11-18T05:15:00.707Z,0.00
2022-11-18T05:16:00.661Z,0.00
2022-11-18T05:17:00.594Z,0.00
2022-11-18T05:18:00.541Z,0.00
2022-11-18T05:19:00.504Z,0.00
2022-11-18T05:20:00.404Z,0.00
2022-11-18T05:21:00.323Z,0.00
2022-11-18T05:22:00.239Z,0.00
2022-11-18T05:23:00.186Z,0.00
2022-11-18T05:24:00.092Z,0.00
2022-11-18T05:25:00.077Z,0.00
2022-11-18T05:26:02.587Z,0.00
2022-11-18T05:26:59.964Z,0.00
2022-11-18T05:27:59.858Z,0.00
2022-11-18T05:28:59.772Z,0.00
2022-11-18T05:29:59.720Z,0.00
2022-11-18T05:30:59.720Z,0.00
2022-11-18T05:32:20.575Z,0.00
2022-11-18T05:32:59.538Z,0.00
2022-11-18T05:33:59.512Z,0.00
2022-11-18T05:34:59.424Z,0.00
2022-11-18T05:35:59.347Z,0.00
2022-11-18T05:36:59.258Z,0.00
2022-11-18T05:37:59.216Z,0.00
2022-11-18T05:38:59.279Z,0.00
2022-11-18T05:39:59.087Z,0.00
2022-11-18T05:40:58.999Z,0.00
2022-11-18T05:41:58.943Z,0.00
2022-11-18T05:42:58.925Z,0.00
2022-11-18T05:43:58.854Z,0.00
2022-11-18T05:44:59.196Z,0.00
2022-11-18T05:45:58.705Z,0.00
2022-11-18T05:46:58.665Z,0.00
2022-11-18T05:47:58.556Z,0.00
2022-11-18T05:48:58.560Z,0.00
2022-11-18T05:49:58.495Z,0.00
2022-11-18T05:50:58.416Z,0.00
2022-11-18T05:51:58.325Z,0.00
2022-11-18T05:52:58.279Z,0.00
2022-11-18T05:53:58.176Z,0.00
2022-11-18T05:54:58.179Z,0.00
2022-11-18T05:55:58.072Z,0.00
2022-11-18T05:56:58.004Z,0.00
2022-11-18T05:57:57.921Z,0.00
2022-11-18T05:58:57.895Z,0.00
2022-11-18T05:59:57.805Z,0.00
2022-11-18T06:00:57.773Z,0.00
2022-11-18T06:01:57.734Z,0.00
2022-11-18T06:02:57.688Z,0.00
2022-11-18T06:03:57.563Z,0.00
2022-11-18T06:04:57.493Z,0.00
2022-11-18T06:05:57.407Z,0.00
2022-11-18T06:06:57.447Z,0.00
2022-11-18T06:08:01.308Z,0.00
2022-11-18T06:08:57.214Z,0.00
2022-11-18T06:09:59.771Z,0.00
2022-11-18T06:10:57.151Z,0.00
2022-11-18T06:11:57.080Z,0.00
2022-11-18T06:12:56.953Z,0.00
2022-11-18T06:13:56.896Z,0.00
2022-11-18T06:14:56.833Z,0.00
2022-11-18T06:15:56.817Z,0.00
2022-11-18T06:16:56.701Z,0.00
2022-11-18T06:17:56.600Z,1.00
2022-11-18T06:18:56.635Z,0.00
2022-11-18T06:19:56.496Z,2.00
2022-11-18T06:20:57.291Z,2.00
2022-11-18T06:21:56.320Z,1.00
2022-11-18T06:22:56.815Z,1.00
2022-11-18T06:23:56.243Z,2.00
2022-11-18T06:24:56.126Z,2.00
2022-11-18T06:25:56.227Z,2.00
2022-11-18T06:26:56.039Z,1.00
2022-11-18T06:27:55.998Z,1.00
2022-11-18T06:28:55.899Z,3.00
2022-11-18T06:29:55.848Z,4.00
2022-11-18T06:30:55.797Z,1.00
2022-11-18T06:31:55.742Z,7.00
2022-11-18T06:32:55.639Z,7.00
2022-11-18T06:33:55.569Z,6.00
2022-11-18T06:34:55.504Z,10.00
2022-11-18T06:35:55.429Z,11.00
2022-11-18T06:36:55.397Z,11.00
2022-11-18T06:37:55.332Z,11.00
2022-11-18T06:38:55.238Z,12.00
2022-11-18T06:39:55.219Z,17.00
2022-11-18T06:40:55.111Z,17.00
2022-11-18T06:41:56.048Z,20.00
2022-11-18T06:42:56.036Z,22.00
2022-11-18T06:43:57.303Z,22.00
2022-11-18T06:44:55.908Z,25.00
2022-11-18T06:45:56.300Z,26.00
2022-11-18T06:46:54.745Z,27.00
2022-11-18T06:47:54.824Z,31.00
2022-11-18T06:48:54.648Z,34.00
2022-11-18T06:49:55.549Z,36.00
2022-11-18T06:50:55.514Z,41.00
2022-11-18T06:51:56.728Z,43.00
2022-11-18T06:52:55.803Z,45.00
2022-11-18T06:53:55.292Z,47.00
2022-11-18T06:54:55.796Z,50.00
2022-11-18T06:55:54.181Z,52.00
2022-11-18T06:56:54.112Z,57.00
2022-11-18T06:57:54.068Z,61.00
2022-11-18T06:58:54.806Z,67.00
2022-11-18T06:59:59.147Z,67.00
2022-11-18T07:00:53.972Z,73.00
2022-11-18T07:01:53.843Z,75.00
2022-11-18T07:02:53.729Z,79.00
2022-11-18T07:03:53.665Z,81.00
2022-11-18T07:04:53.575Z,85.00
2022-11-18T07:05:53.539Z,87.00
2022-11-18T07:06:53.512Z,95.00
2022-11-18T07:07:53.486Z,96.00
2022-11-18T07:08:53.314Z,104.00
2022-11-18T07:09:53.272Z,110.00
2022-11-18T07:10:53.253Z,117.00
2022-11-18T07:11:53.136Z,121.00
2022-11-18T07:12:53.120Z,128.00
2022-11-18T07:13:53.029Z,133.00
2022-11-18T07:14:52.958Z,144.00
2022-11-18T07:15:52.851Z,149.00
2022-11-18T07:16:52.817Z,165.00
2022-11-18T07:17:52.742Z,172.00
2022-11-18T07:18:52.684Z,186.00
2022-11-18T07:19:53.889Z,214.00
2022-11-18T07:20:52.611Z,244.00
2022-11-18T07:21:52.503Z,270.00
2022-11-18T07:22:52.465Z,287.00
2022-11-18T07:23:52.395Z,274.00
2022-11-18T07:24:52.291Z,254.00
2022-11-18T07:25:52.288Z,265.00
2022-11-18T07:26:52.195Z,269.00
2022-11-18T07:27:52.130Z,262.00
2022-11-18T07:28:52.019Z,245.00
2022-11-18T07:29:51.986Z,221.00
2022-11-18T07:30:51.960Z,209.00
2022-11-18T07:31:51.902Z,214.00
2022-11-18T07:32:51.800Z,211.00
2022-11-18T07:33:51.767Z,219.00
2022-11-18T07:34:51.717Z,232.00
2022-11-18T07:35:51.601Z,243.00
2022-11-18T07:36:51.559Z,246.00
2022-11-18T07:37:52.757Z,252.00
2022-11-18T07:38:51.435Z,267.00
2022-11-18T07:39:54.225Z,277.00
2022-11-18T07:40:52.227Z,294.00
2022-11-18T07:41:51.248Z,308.00
2022-11-18T07:42:51.154Z,319.00
2022-11-18T07:43:52.326Z,334.00
2022-11-18T07:44:51.035Z,324.00
2022-11-18T07:45:50.978Z,342.00
2022-11-18T07:46:50.914Z,353.00
2022-11-18T07:47:50.886Z,360.00
2022-11-18T07:48:50.789Z,374.00
2022-11-18T07:49:50.699Z,373.00
2022-11-18T07:50:50.638Z,370.00
2022-11-18T07:51:50.633Z,351.00
2022-11-18T07:52:50.530Z,346.00
2022-11-18T07:53:50.443Z,331.00
2022-11-18T07:54:50.410Z,316.00
2022-11-18T07:58:19.533Z,260.00
2022-11-18T07:59:20.688Z,257.00
2022-11-18T08:00:22.668Z,256.00
2022-11-18T08:01:20.231Z,262.00
2022-11-18T08:02:20.102Z,275.00
2022-11-18T08:03:20.706Z,284.00
2022-11-18T08:04:22.698Z,288.00
2022-11-18T08:05:20.532Z,295.00
2022-11-18T08:06:19.791Z,289.00
2022-11-18T08:07:19.886Z,282.00
2022-11-18T08:08:19.779Z,277.00
2022-11-18T08:09:19.949Z,276.00
2022-11-18T08:10:19.590Z,286.00
2022-11-18T08:11:22.627Z,281.00
2022-11-18T08:12:20.499Z,311.00
2022-11-18T08:13:19.399Z,325.00
2022-11-18T08:14:20.063Z,326.00
2022-11-18T08:15:20.569Z,325.00
2022-11-18T08:16:20.068Z,316.00
2022-11-18T08:17:22.432Z,314.00
2022-11-18T08:18:21.433Z,307.00
2022-11-18T08:19:21.013Z,296.00
2022-11-18T08:20:20.835Z,288.00
2022-11-18T08:21:18.876Z,285.00
2022-11-18T08:22:19.588Z,271.00
2022-11-18T08:23:19.608Z,288.00
2022-11-18T08:24:18.683Z,286.00
2022-11-18T08:25:18.722Z,287.00
2022-11-18T08:26:18.553Z,287.00
2022-11-18T08:27:18.821Z,303.00
2022-11-18T08:28:18.980Z,301.00
2022-11-18T08:29:24.509Z,302.00
2022-11-18T08:30:18.295Z,291.00
2022-11-18T08:31:18.213Z,297.00
2022-11-18T08:32:18.210Z,296.00
2022-11-18T08:33:20.394Z,296.00
2022-11-18T08:34:18.012Z,304.00
2022-11-18T08:35:17.951Z,307.00
2022-11-18T08:36:17.875Z,328.00
2022-11-18T08:37:18.501Z,339.00
2022-11-18T08:38:17.722Z,351.00
2022-11-18T08:39:21.433Z,378.00
2022-11-18T08:40:19.198Z,371.00
2022-11-18T08:41:26.044Z,368.00
2022-11-18T08:42:23.289Z,372.00
2022-11-18T08:43:22.293Z,371.00
2022-11-18T08:44:19.483Z,371.00
2022-11-18T08:48:01.553Z,362.00
2022-11-18T08:48:06.906Z,367.00
2022-11-18T08:49:07.608Z,349.00
2022-11-18T08:50:08.102Z,344.00
2022-11-18T08:51:08.540Z,342.00
2022-11-18T08:52:06.343Z,330.00
2022-11-18T08:53:06.261Z,339.00
2022-11-18T08:54:06.229Z,351.00
2022-11-18T08:55:06.117Z,343.00
2022-11-18T08:56:06.096Z,334.00
2022-11-18T08:57:06.009Z,341.00
2022-11-18T08:58:05.914Z,334.00
2022-11-18T08:59:05.871Z,315.00
2022-11-18T09:00:05.866Z,297.00
2022-11-18T09:01:05.790Z,324.00
2022-11-18T09:02:05.752Z,344.00
2022-11-18T09:03:05.659Z,370.00
2022-11-18T09:04:05.547Z,364.00
2022-11-18T09:05:05.527Z,352.00
2022-11-18T09:06:05.399Z,344.00
2022-11-18T09:07:05.398Z,334.00
2022-11-18T09:08:05.308Z,333.00
2022-11-18T09:09:09.257Z,319.00
2022-11-18T09:10:05.186Z,305.00
2022-11-18T09:11:05.078Z,292.00
2022-11-18T09:12:05.014Z,274.00
2022-11-18T09:13:32.751Z,258.00
2022-11-18T09:15:13.780Z,291.00
2022-11-18T09:16:04.767Z,290.00
2022-11-18T09:17:04.694Z,287.00
2022-11-18T09:18:04.635Z,277.00
2022-11-18T09:19:24.812Z,290.00
2022-11-18T09:20:04.515Z,274.00
2022-11-18T09:21:04.554Z,260.00
2022-11-18T09:22:04.432Z,253.00
2022-11-18T09:23:04.334Z,255.00
2022-11-18T09:24:04.292Z,256.00
2022-11-18T09:25:04.247Z,260.00
2022-11-18T09:26:04.130Z,277.00
2022-11-18T09:27:34.203Z,313.00
2022-11-18T09:28:03.985Z,320.00
2022-11-18T09:29:04.384Z,342.00
2022-11-18T09:30:05.042Z,360.00
2022-11-18T09:31:03.833Z,373.00
2022-11-18T09:32:03.783Z,383.00
2022-11-18T09:33:03.714Z,390.00
2022-11-18T09:34:03.683Z,392.00
2022-11-18T09:35:03.564Z,384.00
2022-11-18T09:36:03.500Z,377.00
2022-11-18T09:37:03.464Z,371.00
2022-11-18T09:38:03.384Z,358.00
2022-11-18T09:39:03.323Z,345.00
2022-11-18T09:40:03.213Z,334.00
2022-11-18T09:41:03.198Z,321.00
2022-11-18T09:42:03.082Z,318.00
2022-11-18T09:43:03.066Z,317.00
2022-11-18T09:44:02.943Z,320.00
2022-11-18T09:45:08.555Z,322.00
2022-11-18T09:46:02.874Z,335.00
2022-11-18T09:47:02.759Z,348.00
2022-11-18T09:48:02.759Z,346.00
2022-11-18T09:49:02.669Z,339.00
2022-11-18T09:50:20.446Z,330.00
2022-11-18T09:51:02.626Z,319.00
2022-11-18T09:52:02.471Z,303.00
2022-11-18T09:53:02.407Z,282.00
2022-11-18T09:54:02.722Z,279.00
2022-11-18T09:55:02.330Z,287.00
2022-11-18T09:56:02.290Z,285.00
2022-11-18T09:57:04.105Z,300.00
2022-11-18T09:58:02.093Z,303.00
2022-11-18T09:59:02.030Z,318.00
2022-11-18T10:00:01.971Z,322.00
2022-11-18T10:01:01.932Z,329.00
2022-11-18T10:02:01.840Z,333.00
2022-11-18T10:03:01.797Z,366.00
2022-11-18T10:04:01.856Z,350.00
2022-11-18T10:05:01.615Z,378.00
2022-11-18T10:06:01.597Z,411.00
2022-11-18T10:07:01.549Z,433.00
2022-11-18T10:08:02.539Z,484.00
2022-11-18T10:09:02.520Z,522.00
2022-11-18T10:10:01.337Z,555.00
2022-11-18T10:11:02.106Z,588.00
2022-11-18T10:12:01.216Z,634.00
2022-11-18T10:13:01.282Z,623.00
2022-11-18T10:14:01.094Z,658.00
2022-11-18T10:15:30.806Z,708.00
2022-11-18T10:16:01.005Z,721.00
2022-11-18T10:17:00.866Z,755.00
2022-11-18T10:18:01.491Z,789.00
2022-11-18T10:19:01.372Z,783.00
2022-11-18T10:20:00.708Z,790.00
2022-11-18T10:21:22.579Z,797.00
2022-11-18T10:22:02.172Z,817.00
2022-11-18T10:23:00.607Z,852.00
2022-11-18T10:24:00.415Z,828.00
2022-11-18T10:25:00.337Z,869.00
2022-11-18T10:26:00.314Z,912.00
2022-11-18T10:27:00.215Z,866.00
2022-11-18T10:28:00.194Z,805.00
2022-11-18T10:29:00.189Z,791.00
2022-11-18T10:30:00.022Z,889.00
2022-11-18T10:31:02.297Z,864.00
2022-11-18T10:32:04.781Z,846.00
2022-11-18T10:33:26.999Z,790.00
2022-11-18T10:34:22.429Z,846.00
2022-11-18T10:34:59.730Z,904.00
2022-11-18T10:36:11.662Z,894.00
2022-11-18T10:36:59.617Z,953.00
2022-11-18T10:38:08.241Z,987.00
2022-11-18T10:39:03.443Z,976.00
2022-11-18T10:39:59.449Z,1022.00
2022-11-18T10:40:59.292Z,1079.00
2022-11-18T10:41:59.275Z,1056.00
2022-11-18T10:42:59.221Z,919.00
2022-11-18T10:44:00.461Z,874.00
2022-11-18T10:44:59.052Z,840.00
2022-11-18T10:45:59.012Z,890.00
2022-11-18T10:46:58.912Z,808.00
2022-11-18T10:47:58.881Z,774.00
2022-11-18T10:48:59.588Z,713.00
2022-11-18T10:49:59.475Z,613.00
2022-11-18T10:50:58.681Z,632.00
2022-11-18T10:51:58.669Z,654.00
2022-11-18T10:52:58.543Z,721.00
2022-11-18T10:53:58.980Z,773.00
2022-11-18T10:54:58.459Z,739.00
2022-11-18T10:55:58.330Z,716.00
2022-11-18T10:56:58.814Z,702.00
2022-11-18T10:57:58.263Z,710.00
2022-11-18T10:58:58.167Z,761.00
2022-11-18T10:59:58.175Z,796.00
2022-11-18T11:00:58.090Z,805.00
2022-11-18T11:01:58.068Z,814.00
2022-11-18T11:02:57.917Z,851.00
2022-11-18T11:03:57.847Z,826.00
2022-11-18T11:04:57.821Z,776.00
2022-11-18T11:05:57.710Z,781.00
2022-11-18T11:06:57.648Z,737.00
2022-11-18T11:08:21.199Z,781.00
2022-11-18T11:08:57.537Z,794.00
2022-11-18T11:09:57.496Z,869.00
2022-11-18T11:10:57.392Z,885.00
2022-11-18T11:11:57.315Z,829.00
2022-11-18T11:12:57.270Z,754.00
2022-11-18T11:13:57.707Z,684.00
2022-11-18T11:14:57.990Z,678.00
2022-11-18T11:15:57.150Z,619.00
2022-11-18T11:16:57.132Z,579.00
2022-11-18T11:17:56.989Z,602.00
2022-11-18T11:18:56.927Z,643.00
2022-11-18T11:19:56.795Z,674.00
2022-11-18T11:20:56.771Z,733.00
2022-11-18T11:21:56.692Z,742.00
2022-11-18T11:22:56.590Z,726.00
2022-11-18T11:23:56.560Z,733.00
2022-11-18T11:24:56.484Z,721.00
2022-11-18T11:28:56.250Z,876.00
2022-11-18T11:29:56.965Z,818.00
2022-11-18T11:30:56.112Z,755.00
2022-11-18T11:31:56.082Z,668.00
2022-11-18T11:34:34.910Z,517.00
2022-11-18T11:35:35.827Z,528.00
2022-11-18T11:36:35.719Z,494.00
2022-11-18T11:37:35.678Z,492.00
2022-11-18T11:38:35.609Z,555.00
2022-11-18T11:39:36.582Z,497.00
2022-11-18T11:40:36.425Z,473.00
2022-11-18T11:41:38.748Z,518.00
2022-11-18T11:42:35.323Z,561.00
2022-11-18T11:43:38.927Z,495.00
2022-11-18T11:44:36.097Z,550.00
2022-11-18T11:45:37.075Z,569.00
2022-11-18T11:46:37.410Z,588.00
2022-11-18T11:47:36.997Z,548.00
2022-11-18T11:48:35.888Z,536.00
2022-11-18T11:49:34.902Z,484.00
2022-11-18T11:51:03.495Z,494.00
2022-11-18T11:51:34.930Z,507.00
2022-11-18T11:52:35.847Z,477.00
2022-11-18T11:53:34.659Z,449.00
2022-11-18T11:54:34.578Z,455.00
2022-11-18T11:55:35.596Z,411.00
2022-11-18T11:56:36.582Z,391.00
2022-11-18T11:57:34.339Z,335.00
2022-11-18T11:58:34.324Z,440.00
2022-11-18T11:59:34.266Z,481.00
2022-11-18T12:00:34.200Z,483.00
2022-11-18T12:01:34.132Z,424.00
2022-11-18T12:02:34.153Z,420.00
2022-11-18T12:03:33.969Z,408.00
2022-11-18T12:04:36.866Z,372.00
2022-11-18T12:05:35.576Z,458.00
2022-11-18T12:06:34.868Z,536.00
2022-11-18T12:07:36.879Z,615.00
2022-11-18T12:08:36.137Z,655.00
2022-11-18T12:09:33.673Z,632.00
2022-11-18T12:10:35.335Z,687.00
2022-11-18T12:11:33.437Z,789.00
2022-11-18T12:12:33.403Z,758.00
2022-11-18T12:13:33.346Z,752.00
2022-11-18T12:14:38.549Z,662.00
2022-11-18T12:15:33.244Z,685.00
2022-11-18T12:16:33.172Z,720.00
2022-11-18T12:17:33.141Z,741.00
2022-11-18T12:18:33.048Z,668.00
2022-11-18T12:19:32.967Z,608.00
2022-11-18T12:20:32.960Z,524.00
2022-11-18T12:21:35.136Z,534.00
2022-11-18T12:22:32.788Z,487.00
2022-11-18T12:23:32.769Z,488.00
2022-11-18T12:24:32.630Z,461.00
2022-11-18T12:25:33.352Z,449.00
2022-11-18T12:26:32.524Z,468.00
2022-11-18T12:27:32.501Z,441.00
2022-11-18T12:28:32.366Z,475.00
2022-11-18T12:29:32.336Z,413.00
2022-11-18T12:30:32.238Z,446.00
2022-11-18T12:31:32.207Z,472.00
2022-11-18T12:32:32.138Z,441.00
2022-11-18T12:33:32.120Z,508.00
2022-11-18T12:34:31.972Z,469.00
2022-11-18T12:35:31.963Z,512.00
2022-11-18T12:36:31.900Z,529.00
2022-11-18T12:37:31.855Z,513.00
2022-11-18T12:38:31.957Z,574.00
2022-11-18T12:39:31.694Z,629.00
2022-11-18T12:40:31.664Z,612.00
2022-11-18T12:41:31.557Z,634.00
2022-11-18T12:42:31.471Z,680.00
2022-11-18T12:43:31.397Z,703.00
2022-11-18T12:44:31.375Z,706.00
2022-11-18T12:45:31.294Z,693.00
2022-11-18T12:46:31.243Z,711.00
2022-11-18T12:47:31.177Z,790.00
2022-11-18T12:48:31.156Z,718.00
2022-11-18T12:49:31.089Z,668.00
2022-11-18T12:50:31.031Z,686.00
2022-11-18T12:51:30.919Z,673.00
2022-11-18T12:52:30.822Z,593.00
2022-11-18T12:53:30.831Z,543.00
2022-11-18T12:54:30.701Z,486.00
2022-11-18T12:55:30.636Z,515.00
2022-11-18T12:56:30.584Z,485.00
2022-11-18T12:57:30.564Z,555.00
2022-11-18T12:58:30.511Z,576.00
2022-11-18T12:59:30.490Z,661.00
2022-11-18T13:00:30.400Z,443.00
2022-11-18T13:01:30.313Z,856.00
2022-11-18T13:02:31.466Z,696.00
2022-11-18T13:03:30.123Z,579.00
2022-11-18T13:04:30.090Z,546.00
2022-11-18T13:05:29.983Z,373.00
2022-11-18T13:06:29.993Z,643.00
2022-11-18T13:07:29.919Z,790.00
2022-11-18T13:08:29.874Z,700.00